Time;durP1;ratioP1;P1;durP2;ratioP2;P2;SDS_P1;SDS_P2;PMS_P1;PMS_P2;Temp;Humidity;BMP_temperature;BMP_pressure;BME280_temperature;BME280_humidity;BME280_pressure;Samples;Min_cycle;Max_cycle;Signal;HPM_P1;HPM_P2
2022/09/24 00:04:36;;;;;;;;;;;;;;;;;;10414242;28;19929;-58
2022/09/24 00:09:38;;;;;;;;;;;;;;;;;;10416836;28;20356;-58
2022/09/24 00:14:40;;;;;;;;;;;;;;;;;;10417337;28;19982;-57
2022/09/24 00:19:43;;;;;;;;;;;;;;;;;;10413047;28;19925;-58
2022/09/24 00:30:06;;;;;;;;;;;;;;;;;;10416142;28;20292;-58
2022/09/24 00:35:08;;;;;;;;;;;;;;;;;;10417007;28;19979;-57
2022/09/24 00:40:14;;;;;;;;;;;;;;;;;;10414865;28;19960;-57
2022/09/24 00:45:16;;;;;;;;;;;;;;;;;;10414942;28;19971;-57
2022/09/24 00:50:18;;;;;;;;;;;;;;;;;;10414840;28;19925;-58
2022/09/24 00:55:20;;;;;;;;;;;;;;;;;;10416178;28;19929;-58
2022/09/24 01:00:22;;;;;;;;;;;;;;;;;;10416098;28;19929;-58
2022/09/24 01:05:25;;;;;;;;;;;;;;;;;;10414975;28;19979;-58
2022/09/24 01:16:01;;;;;;;;;;;;;;;;;;10382300;28;19952;-58
2022/09/24 01:21:03;;;;;;;;;;;;;;;;;;10413761;28;19925;-58
2022/09/24 01:26:05;;;;;;;;;;;;;;;;;;10414887;28;19925;-58
2022/09/24 01:31:07;;;;;;;;;;;;;;;;;;10415524;28;19975;-58
2022/09/24 01:36:09;;;;;;;;;;;;;;;;;;10414475;28;20013;-58
2022/09/24 01:41:12;;;;;;;;;;;;;;;;;;10413486;28;19929;-58
2022/09/24 01:46:15;;;;;;;;;;;;;;;;;;10413585;28;20434;-58
2022/09/24 01:51:17;;;;;;;;;;;;;;;;;;10397707;28;19964;-58
2022/09/24 01:56:19;;;;;;;;;;;;;;;;;;10416137;28;19925;-58
2022/09/24 02:01:21;;;;;;;;;;;;;;;;;;10420702;28;19925;-58
2022/09/24 02:06:24;;;;;;;;;;;;;;;;;;10421621;28;20339;-58
2022/09/24 02:11:26;;;;;;;;;;;;;;;;;;10421534;28;19991;-58
2022/09/24 02:16:29;;;;;;;;;;;;;;;;;;10420171;28;20400;-58
2022/09/24 02:21:31;;;;;;;;;;;;;;;;;;10419976;28;20011;-58
2022/09/24 02:26:33;;;;;;;;;;;;;;;;;;10419903;28;20372;-58
2022/09/24 02:31:35;;;;;;;;;;;;;;;;;;10433457;22;19971;-62
2022/09/24 02:36:37;;;;;;;;;;;;;;;;;;10421333;28;19967;-62
2022/09/24 02:41:41;;;;;;;;;;;;;;;;;;10418401;28;19971;-62
2022/09/24 02:46:43;;;;;;;;;;;;;;;;;;10420819;28;19975;-62
2022/09/24 02:51:45;;;;;;;;;;;;;;;;;;10419180;28;19956;-62
2022/09/24 02:56:47;;;;;;;;;;;;;;;;;;10420544;28;19933;-62
2022/09/24 03:01:49;;;;;;;;;;;;;;;;;;10418473;28;19979;-62
2022/09/24 03:06:52;;;;;;;;;;;;;;;;;;10419589;28;20024;-62
2022/09/24 03:11:56;;;;;;;;;;;;;;;;;;10419305;28;20372;-62
2022/09/24 03:16:58;;;;;;;;;;;;;;;;;;10418671;28;19973;-62
2022/09/24 03:22:00;;;;;;;;;;;;;;;;;;10418720;28;19963;-63
2022/09/24 03:27:02;;;;;;;;;;;;;;;;;;10417536;28;20438;-62
2022/09/24 03:32:04;;;;;;;;;;;;;;;;;;10418638;28;19925;-62
2022/09/24 03:37:06;;;;;;;;;;;;;;;;;;10418260;28;20372;-62
2022/09/24 03:42:09;;;;;;;;;;;;;;;;;;10415200;28;19925;-62
2022/09/24 03:47:11;;;;;;;;;;;;;;;;;;10418389;28;19925;-63
2022/09/24 03:52:13;;;;;;;;;;;;;;;;;;10417672;28;19925;-62
2022/09/24 03:57:15;;;;;;;;;;;;;;;;;;10417178;28;19925;-62
2022/09/24 04:02:18;;;;;;;;;;;;;;;;;;10416960;28;19929;-62
2022/09/24 04:07:21;;;;;;;;;;;;;;;;;;10417082;28;19925;-62
2022/09/24 04:12:23;;;;;;;;;;;;;;;;;;10417535;28;19975;-62
2022/09/24 04:17:27;;;;;;;;;;;;;;;;;;10416401;28;19971;-62
2022/09/24 04:22:30;;;;;;;;;;;;;;;;;;10414857;28;19925;-62
2022/09/24 04:27:34;;;;;;;;;;;;;;;;;;10416022;28;19971;-62
2022/09/24 04:32:37;;;;;;;;;;;;;;;;;;10416397;28;19925;-62
2022/09/24 04:37:39;;;;;;;;;;;;;;;;;;10416135;28;19979;-62
2022/09/24 04:42:41;;;;;;;;;;;;;;;;;;10413893;28;19925;-62
2022/09/24 04:47:43;;;;;;;;;;;;;;;;;;10416397;28;19925;-62
2022/09/24 04:52:45;;;;;;;;;;;;;;;;;;10416235;28;19925;-62
2022/09/24 04:57:47;;;;;;;;;;;;;;;;;;10415378;28;19971;-62
2022/09/24 05:02:49;;;;;;;;;;;;;;;;;;10413865;28;19925;-62
2022/09/24 05:07:51;;;;;;;;;;;;;;;;;;10415923;28;19940;-62
2022/09/24 05:12:53;;;;;;;;;;;;;;;;;;10415244;28;19925;-62
2022/09/24 05:17:56;;;;;;;;;;;;;;;;;;10413454;28;19925;-62
2022/09/24 05:22:58;;;;;;;;;;;;;;;;;;10412100;28;19983;-62
2022/09/24 05:28:00;;;;;;;;;;;;;;;;;;10415358;28;20011;-62
2022/09/24 05:33:02;;;;;;;;;;;;;;;;;;10420034;28;19929;-62
2022/09/24 05:38:04;;;;;;;;;;;;;;;;;;10422622;28;19952;-62
2022/09/24 05:43:06;;;;;;;;;;;;;;;;;;10422406;28;19947;-62
2022/09/24 05:48:08;;;;;;;;;;;;;;;;;;10422096;28;19975;-62
2022/09/24 05:53:10;;;;;;;;;;;;;;;;;;10422301;28;19928;-62
2022/09/24 05:58:12;;;;;;;;;;;;;;;;;;10422706;28;19971;-63
2022/09/24 06:03:14;;;;;;;;;;;;;;;;;;10421567;28;19979;-62
2022/09/24 06:08:16;;;;;;;;;;;;;;;;;;10421526;28;20008;-62
2022/09/24 06:13:19;;;;;;;;;;;;;;;;;;10421540;28;20384;-62
2022/09/24 06:18:23;;;;;;;;;;;;;;;;;;10420756;28;19925;-62
2022/09/24 06:23:25;;;;;;;;;;;;;;;;;;10420924;28;19925;-62
2022/09/24 06:28:27;;;;;;;;;;;;;;;;;;10420639;28;19971;-62
2022/09/24 06:33:29;;;;;;;;;;;;;;;;;;10420879;28;19971;-62
2022/09/24 06:38:31;;;;;;;;;;;;;;;;;;10420641;28;20369;-62
2022/09/24 06:43:33;;;;;;;;;;;;;;;;;;10419171;28;19979;-62
2022/09/24 06:48:37;;;;;;;;;;;;;;;;;;10419102;28;19925;-62
2022/09/24 06:53:39;;;;;;;;;;;;;;;;;;10420660;28;19929;-63
2022/09/24 06:58:41;;;;;;;;;;;;;;;;;;10419919;28;20381;-62
2022/09/24 07:03:43;;;;;;;;;;;;;;;;;;10417552;28;19925;-62
2022/09/24 07:08:45;;;;;;;;;;;;;;;;;;10420072;28;19925;-62
2022/09/24 07:13:47;;;;;;;;;;;;;;;;;;10419790;28;19925;-62
2022/09/24 07:18:49;;;;;;;;;;;;;;;;;;10417179;28;19925;-62
2022/09/24 07:23:51;;;;;;;;;;;;;;;;;;10418503;28;19979;-62
2022/09/24 07:28:58;;;;;;;;;;;;;;;;;;10419192;28;19929;-62
2022/09/24 07:34:00;;;;;;;;;;;;;;;;;;10418408;28;19956;-62
2022/09/24 07:39:03;;;;;;;;;;;;;;;;;;10417374;28;20347;-61
2022/09/24 07:44:06;;;;;;;;;;;;;;;;;;10417009;28;20392;-61
2022/09/24 07:49:08;;;;;;;;;;;;;;;;;;10421528;28;19929;-61
2022/09/24 07:54:10;;;;;;;;;;;;;;;;;;10458822;28;19925;-61
2022/09/24 07:59:19;;;;;;;;;;;;;;;;;;10458570;28;19931;-61
2022/09/24 08:04:21;;;;;;;;;;;;;;;;;;10458094;28;20375;-61
2022/09/24 08:09:23;;;;;;;;;;;;;;;;;;10458264;28;19925;-61
2022/09/24 08:14:25;;;;;;;;;;;;;;;;;;10458106;28;20437;-61
2022/09/24 08:19:29;;;;;;;;;;;;;;;;;;10457941;28;19994;-61
2022/09/24 08:24:31;;;;;;;;;;;;;;;;;;10458419;28;19931;-61
2022/09/24 08:29:33;;;;;;;;;;;;;;;;;;10457446;28;20342;-62
2022/09/24 08:34:39;;;;;;;;;;;;;;;;;;10457382;28;19925;-62
2022/09/24 08:39:41;;;;;;;;;;;;;;;;;;10457938;28;19970;-62
2022/09/24 08:50:04;;;;;;;;;;;;;;;;;;10457521;28;19979;-62
2022/09/24 08:55:06;;;;;;;;;;;;;;;;;;10456827;28;19925;-61
2022/09/24 09:00:08;;;;;;;;;;;;;;;;;;10457352;28;19979;-61
2022/09/24 09:05:10;;;;;;;;;;;;;;;;;;10459436;28;19983;-61
2022/09/24 09:10:12;;;;;;;;;;;;;;;;;;10470311;28;20265;-61
2022/09/24 09:15:14;;;;;;;;;;;;;;;;;;10470065;28;20380;-61
2022/09/24 09:20:16;;;;;;;;;;;;;;;;;;10470780;28;19928;-62
2022/09/24 09:25:18;;;;;;;;;;;;;;;;;;10470656;28;19929;-61
2022/09/24 09:30:21;;;;;;;;;;;;;;;;;;10470335;28;19985;-61
2022/09/24 09:35:23;;;;;;;;;;;;;;;;;;10469950;28;19924;-61
2022/09/24 09:40:25;;;;;;;;;;;;;;;;;;10470421;28;19979;-61
2022/09/24 09:45:32;;;;;;;;;;;;;;;;;;10469799;28;19929;-61
2022/09/24 09:50:35;;;;;;;;;;;;;;;;;;10469553;28;19929;-61
2022/09/24 09:55:37;;;;;;;;;;;;;;;;;;10469556;28;20433;-61
2022/09/24 10:00:40;;;;;;;;;;;;;;;;;;10470129;28;19925;-61
2022/09/24 10:05:42;;;;;;;;;;;;;;;;;;10470043;28;19925;-62
2022/09/24 10:10:44;;;;;;;;;;;;;;;;;;10469849;28;19925;-62
2022/09/24 10:15:46;;;;;;;;;;;;;;;;;;10469347;28;20418;-62
2022/09/24 10:20:48;;;;;;;;;;;;;;;;;;10461979;28;20443;-62
2022/09/24 10:25:50;;;;;;;;;;;;;;;;;;10463588;28;19951;-62
2022/09/24 10:30:52;;;;;;;;;;;;;;;;;;10462165;28;19990;-62
2022/09/24 10:35:55;;;;;;;;;;;;;;;;;;10462082;28;19925;-62
2022/09/24 10:40:57;;;;;;;;;;;;;;;;;;10462407;28;19925;-62
2022/09/24 10:46:00;;;;;;;;;;;;;;;;;;10461595;28;19932;-63
2022/09/24 10:51:02;;;;;;;;;;;;;;;;;;10461990;28;20024;-63
2022/09/24 10:56:05;;;;;;;;;;;;;;;;;;10461871;28;19979;-62
2022/09/24 11:01:07;;;;;;;;;;;;;;;;;;10461787;28;19925;-63
2022/09/24 11:06:09;;;;;;;;;;;;;;;;;;10460842;28;20339;-62
2022/09/24 11:11:11;;;;;;;;;;;;;;;;;;10461197;28;19971;-63
2022/09/24 11:16:13;;;;;;;;;;;;;;;;;;10461103;28;19924;-63
2022/09/24 11:21:15;;;;;;;;;;;;;;;;;;10462096;28;20011;-63
2022/09/24 11:26:17;;;;;;;;;;;;;;;;;;10460038;28;20372;-63
2022/09/24 11:31:19;;;;;;;;;;;;;;;;;;10459705;28;19925;-63
2022/09/24 11:36:21;;;;;;;;;;;;;;;;;;10460290;28;19924;-63
2022/09/24 11:41:24;;;;;;;;;;;;;;;;;;10460081;28;19970;-63
2022/09/24 11:46:26;;;;;;;;;;;;;;;;;;10459241;28;20441;-63
2022/09/24 11:51:28;;;;;;;;;;;;;;;;;;10459559;28;20016;-63
2022/09/24 11:56:30;;;;;;;;;;;;;;;;;;10459702;28;19970;-63
2022/09/24 12:01:33;;;;;;;;;;;;;;;;;;10458658;28;20371;-63
2022/09/24 12:06:35;;;;;;;;;;;;;;;;;;10458623;28;20318;-63
2022/09/24 12:11:38;;;;;;;;;;;;;;;;;;10458214;28;20291;-63
2022/09/24 12:16:40;;;;;;;;;;;;;;;;;;10458101;28;20326;-68
2022/09/24 12:21:42;;;;;;;;;;;;;;;;;;10457886;28;20024;-63
2022/09/24 12:26:44;;;;;;;;;;;;;;;;;;10457722;28;19994;-63
2022/09/24 12:37:07;;;;;;;;;;;;;;;;;;10458020;28;19925;-63
2022/09/24 12:42:09;;;;;;;;;;;;;;;;;;10457175;28;19936;-63
2022/09/24 12:47:11;;;;;;;;;;;;;;;;;;10457725;28;19925;-66
2022/09/24 12:52:13;;;;;;;;;;;;;;;;;;10457510;28;20016;-66
2022/09/24 12:57:15;;;;;;;;;;;;;;;;;;10438519;28;19925;-67
2022/09/24 13:02:22;;;;;;;;;;;;;;;;;;10415507;28;20348;-67
2022/09/24 13:07:24;;;;;;;;;;;;;;;;;;10415920;28;19925;-66
2022/09/24 13:12:26;;;;;;;;;;;;;;;;;;10412266;28;20343;-65
2022/09/24 13:17:29;;;;;;;;;;;;;;;;;;10415365;28;19956;-65
2022/09/24 13:22:31;;;;;;;;;;;;;;;;;;10410632;28;19929;-62
2022/09/24 13:27:36;;;;;;;;;;;;;;;;;;10414999;28;20416;-62
2022/09/24 13:32:39;;;;;;;;;;;;;;;;;;10415208;28;20446;-62
2022/09/24 13:37:41;;;;;;;;;;;;;;;;;;10411962;28;19979;-62
2022/09/24 13:42:43;;;;;;;;;;;;;;;;;;10413899;28;20379;-62
2022/09/24 13:47:45;;;;;;;;;;;;;;;;;;10414646;28;19929;-62
2022/09/24 13:52:47;;;;;;;;;;;;;;;;;;10418387;28;19925;-62
2022/09/24 13:57:49;;;;;;;;;;;;;;;;;;10422667;28;19929;-62
2022/09/24 14:02:51;;;;;;;;;;;;;;;;;;10422737;28;19925;-62
2022/09/24 14:07:53;;;;;;;;;;;;;;;;;;10420481;28;19925;-62
2022/09/24 14:12:55;;;;;;;;;;;;;;;;;;10421269;28;19933;-62
2022/09/24 14:17:57;;;;;;;;;;;;;;;;;;10422644;28;19976;-62
2022/09/24 14:23:00;;;;;;;;;;;;;;;;;;10421162;28;19929;-61
2022/09/24 14:28:02;;;;;;;;;;;;;;;;;;10420806;28;19926;-61
2022/09/24 14:33:04;;;;;;;;;;;;;;;;;;10420648;28;19929;-61
2022/09/24 14:38:07;;;;;;;;;;;;;;;;;;10420281;28;19925;-61
2022/09/24 14:43:09;;;;;;;;;;;;;;;;;;10421220;28;19928;-61
2022/09/24 14:48:11;;;;;;;;;;;;;;;;;;10427975;22;19971;-60
2022/09/24 14:53:14;;;;;;;;;;;;;;;;;;10419885;28;19979;-60
2022/09/24 14:58:16;;;;;;;;;;;;;;;;;;10419795;28;19979;-60
2022/09/24 15:03:19;;;;;;;;;;;;;;;;;;10417859;28;20368;-60
2022/09/24 15:08:21;;;;;;;;;;;;;;;;;;10420117;28;19929;-60
2022/09/24 15:13:23;;;;;;;;;;;;;;;;;;10419762;28;19925;-60
2022/09/24 15:18:25;;;;;;;;;;;;;;;;;;10412206;28;19971;-60
2022/09/24 15:23:27;;;;;;;;;;;;;;;;;;10418993;28;19926;-60
2022/09/24 15:28:30;;;;;;;;;;;;;;;;;;10418717;28;20437;-60
2022/09/24 15:33:32;;;;;;;;;;;;;;;;;;10419225;28;19925;-60
2022/09/24 15:38:34;;;;;;;;;;;;;;;;;;10415248;28;19925;-60
2022/09/24 15:43:36;;;;;;;;;;;;;;;;;;10417837;28;19925;-60
2022/09/24 15:48:38;;;;;;;;;;;;;;;;;;10416148;28;20319;-60
2022/09/24 15:53:40;;;;;;;;;;;;;;;;;;10417070;28;20372;-60
2022/09/24 15:58:42;;;;;;;;;;;;;;;;;;10418183;28;19979;-60
2022/09/24 16:03:44;;;;;;;;;;;;;;;;;;10417408;28;20327;-60
2022/09/24 16:08:47;;;;;;;;;;;;;;;;;;10416248;28;19928;-60
2022/09/24 16:13:49;;;;;;;;;;;;;;;;;;10399984;28;19979;-60
2022/09/24 16:18:51;;;;;;;;;;;;;;;;;;10415187;28;20453;-60
2022/09/24 16:23:53;;;;;;;;;;;;;;;;;;10417305;28;19932;-61
2022/09/24 16:28:55;;;;;;;;;;;;;;;;;;10416201;28;19925;-61
2022/09/24 16:33:57;;;;;;;;;;;;;;;;;;10415947;28;19979;-60
2022/09/24 16:38:59;;;;;;;;;;;;;;;;;;10416205;28;20264;-60
2022/09/24 16:44:02;;;;;;;;;;;;;;;;;;10416015;28;20383;-60
2022/09/24 16:49:04;;;;;;;;;;;;;;;;;;10414123;28;19961;-60
2022/09/24 16:54:06;;;;;;;;;;;;;;;;;;10416374;28;19926;-60
2022/09/24 16:59:08;;;;;;;;;;;;;;;;;;10398780;28;19971;-60
2022/09/24 17:04:10;;;;;;;;;;;;;;;;;;10415229;28;19925;-60
2022/09/24 17:14:33;;;;;;;;;;;;;;;;;;10453320;28;20437;-60
2022/09/24 17:19:35;;;;;;;;;;;;;;;;;;10414860;28;19979;-60
2022/09/24 17:24:38;;;;;;;;;;;;;;;;;;10413912;28;19952;-60
2022/09/24 17:29:41;;;;;;;;;;;;;;;;;;10425362;28;20024;-60
2022/09/24 17:34:43;;;;;;;;;;;;;;;;;;10421990;28;19971;-60
2022/09/24 17:39:47;;;;;;;;;;;;;;;;;;10419620;28;19964;-60
2022/09/24 17:44:48;;;;;;;;;;;;;;;;;;10420895;28;20384;-60
2022/09/24 17:49:51;;;;;;;;;;;;;;;;;;10415495;28;19925;-60
2022/09/24 17:54:53;;;;;;;;;;;;;;;;;;10422438;28;20376;-60
2022/09/24 17:59:55;;;;;;;;;;;;;;;;;;10422899;28;19925;-60
2022/09/24 18:04:57;;;;;;;;;;;;;;;;;;10421792;28;19968;-60
2022/09/24 18:09:59;;;;;;;;;;;;;;;;;;10421233;28;19929;-60
2022/09/24 18:15:02;;;;;;;;;;;;;;;;;;10421373;28;19983;-60
2022/09/24 18:20:04;;;;;;;;;;;;;;;;;;10421179;28;19925;-60
2022/09/24 18:25:06;;;;;;;;;;;;;;;;;;10421175;28;19925;-61
2022/09/24 18:30:10;;;;;;;;;;;;;;;;;;10420535;28;19976;-60
2022/09/24 18:35:12;;;;;;;;;;;;;;;;;;10421645;28;19964;-60
2022/09/24 18:40:14;;;;;;;;;;;;;;;;;;10420316;28;19928;-60
2022/09/24 18:45:16;;;;;;;;;;;;;;;;;;10420139;28;19926;-60
2022/09/24 18:50:19;;;;;;;;;;;;;;;;;;10418315;28;19925;-60
2022/09/24 18:55:21;;;;;;;;;;;;;;;;;;10420724;28;19971;-60
2022/09/24 19:05:44;;;;;;;;;;;;;;;;;;10419383;28;19925;-60
2022/09/24 19:10:48;;;;;;;;;;;;;;;;;;10399562;28;21562;-60
2022/09/24 19:15:50;;;;;;;;;;;;;;;;;;10419176;28;19925;-60
2022/09/24 19:20:52;;;;;;;;;;;;;;;;;;10420164;28;19929;-60
2022/09/24 19:25:54;;;;;;;;;;;;;;;;;;10412451;28;20426;-60
2022/09/24 19:30:56;;;;;;;;;;;;;;;;;;10417174;28;19926;-60
2022/09/24 19:36:00;;;;;;;;;;;;;;;;;;10409578;28;20882;-59
2022/09/24 19:41:02;;;;;;;;;;;;;;;;;;10415564;28;19987;-60
2022/09/24 19:46:04;;;;;;;;;;;;;;;;;;10416965;28;20340;-60
2022/09/24 19:51:07;;;;;;;;;;;;;;;;;;10416698;28;20368;-60
2022/09/24 19:56:10;;;;;;;;;;;;;;;;;;10417190;28;19929;-60
2022/09/24 20:01:12;;;;;;;;;;;;;;;;;;10417152;28;19956;-60
2022/09/24 20:06:18;;;;;;;;;;;;;;;;;;10416748;28;20264;-60
2022/09/24 20:11:20;;;;;;;;;;;;;;;;;;10412809;28;19964;-60
2022/09/24 20:16:24;;;;;;;;;;;;;;;;;;10414163;28;19944;-60
2022/09/24 20:21:27;;;;;;;;;;;;;;;;;;10414587;28;20020;-60
2022/09/24 20:31:50;;;;;;;;;;;;;;;;;;10409970;28;19925;-60
2022/09/24 20:36:53;;;;;;;;;;;;;;;;;;10416943;28;19929;-60
2022/09/24 20:41:55;;;;;;;;;;;;;;;;;;10415738;28;19971;-60
2022/09/24 20:46:57;;;;;;;;;;;;;;;;;;10412952;28;19925;-60
2022/09/24 20:52:01;;;;;;;;;;;;;;;;;;10405043;28;19929;-60
2022/09/24 20:57:04;;;;;;;;;;;;;;;;;;10415515;28;19933;-60
2022/09/24 21:02:06;;;;;;;;;;;;;;;;;;10413804;28;20039;-60
2022/09/24 21:07:08;;;;;;;;;;;;;;;;;;10415491;28;20324;-60
2022/09/24 21:12:10;;;;;;;;;;;;;;;;;;10415326;28;20324;-60
2022/09/24 21:17:12;;;;;;;;;;;;;;;;;;10414887;28;19991;-60
2022/09/24 21:22:14;;;;;;;;;;;;;;;;;;10414760;28;19925;-60
2022/09/24 21:27:17;;;;;;;;;;;;;;;;;;10398239;28;19929;-60
2022/09/24 21:32:19;;;;;;;;;;;;;;;;;;10414975;28;19925;-60
2022/09/24 21:37:22;;;;;;;;;;;;;;;;;;10413855;28;19948;-60
2022/09/24 21:42:26;;;;;;;;;;;;;;;;;;10414824;28;20269;-60
2022/09/24 21:47:28;;;;;;;;;;;;;;;;;;10414915;28;19925;-60
2022/09/24 21:52:30;;;;;;;;;;;;;;;;;;10413408;28;19976;-60
2022/09/24 21:57:32;;;;;;;;;;;;;;;;;;10413574;28;20451;-59
2022/09/24 22:02:35;;;;;;;;;;;;;;;;;;10415047;28;19925;-60
2022/09/24 22:07:39;;;;;;;;;;;;;;;;;;10414592;28;19929;-60
2022/09/24 22:12:42;;;;;;;;;;;;;;;;;;10415451;28;20261;-60
2022/09/24 22:17:44;;;;;;;;;;;;;;;;;;10420720;28;20445;-60
2022/09/24 22:22:46;;;;;;;;;;;;;;;;;;10421169;28;19971;-60
2022/09/24 22:27:48;;;;;;;;;;;;;;;;;;10420158;28;19925;-60
2022/09/24 22:32:50;;;;;;;;;;;;;;;;;;10420998;28;19925;-60
2022/09/24 22:37:53;;;;;;;;;;;;;;;;;;10419857;28;20299;-60
2022/09/24 22:42:55;;;;;;;;;;;;;;;;;;10421836;28;19925;-60
2022/09/24 22:47:58;;;;;;;;;;;;;;;;;;10419437;28;20331;-60
2022/09/24 22:53:00;;;;;;;;;;;;;;;;;;10403341;28;19971;-60
2022/09/24 22:58:02;;;;;;;;;;;;;;;;;;10420236;28;19928;-60
2022/09/24 23:03:04;;;;;;;;;;;;;;;;;;10419987;28;20434;-60
2022/09/24 23:08:06;;;;;;;;;;;;;;;;;;10419287;28;19925;-60
2022/09/24 23:13:08;;;;;;;;;;;;;;;;;;10420099;28;19929;-60
2022/09/24 23:18:10;;;;;;;;;;;;;;;;;;10417974;28;19925;-60
2022/09/24 23:23:12;;;;;;;;;;;;;;;;;;10419122;28;20043;-60
2022/09/24 23:28:15;;;;;;;;;;;;;;;;;;10419101;28;19940;-60
2022/09/24 23:33:17;;;;;;;;;;;;;;;;;;10418599;28;19925;-60
2022/09/24 23:38:19;;;;;;;;;;;;;;;;;;10416317;28;19925;-60
2022/09/24 23:43:21;;;;;;;;;;;;;;;;;;10418976;28;19948;-60
2022/09/24 23:48:23;;;;;;;;;;;;;;;;;;10417344;28;19983;-60
2022/09/24 23:53:25;;;;;;;;;;;;;;;;;;10417863;28;20377;-60
2022/09/24 23:58:27;;;;;;;;;;;;;;;;;;10417367;28;19976;-60
